sensor_id;sensor_type;location;lat;lon;timestamp;P1;durP1;ratioP1;P2;durP2;ratioP2
13605;SDS011;6874;52.084;5.090;2023-04-01T00:01:39;52.87;;;51.07;;
13605;SDS011;6874;52.084;5.090;2023-04-01T00:04:04;54.20;;;52.40;;
13605;SDS011;6874;52.084;5.090;2023-04-01T00:06:30;57.07;;;55.17;;
13605;SDS011;6874;52.084;5.090;2023-04-01T00:08:56;55.43;;;53.57;;
13605;SDS011;6874;52.084;5.090;2023-04-01T00:11:21;58.47;;;56.50;;
13605;SDS011;6874;52.084;5.090;2023-04-01T00:13:47;54.80;;;53.00;;
13605;SDS011;6874;52.084;5.090;2023-04-01T00:16:13;52.63;;;50.83;;
13605;SDS011;6874;52.084;5.090;2023-04-01T00:18:40;49.57;;;47.90;;
13605;SDS011;6874;52.084;5.090;2023-04-01T00:21:06;55.23;;;53.40;;
13605;SDS011;6874;52.084;5.090;2023-04-01T00:23:31;56.90;;;55.00;;
13605;SDS011;6874;52.084;5.090;2023-04-01T00:26:01;52.20;;;50.50;;
13605;SDS011;6874;52.084;5.090;2023-04-01T00:28:28;51.47;;;49.77;;
13605;SDS011;6874;52.084;5.090;2023-04-01T00:30:54;50.30;;;48.63;;
13605;SDS011;6874;52.084;5.090;2023-04-01T00:33:20;51.93;;;50.23;;
13605;SDS011;6874;52.084;5.090;2023-04-01T00:35:46;54.83;;;53.03;;
13605;SDS011;6874;52.084;5.090;2023-04-01T00:38:11;55.97;;;54.10;;
13605;SDS011;6874;52.084;5.090;2023-04-01T00:40:41;52.50;;;50.77;;
13605;SDS011;6874;52.084;5.090;2023-04-01T00:43:10;47.37;;;45.80;;
13605;SDS011;6874;52.084;5.090;2023-04-01T00:45:40;47.30;;;45.73;;
13605;SDS011;6874;52.084;5.090;2023-04-01T00:48:09;45.73;;;44.23;;
13605;SDS011;6874;52.084;5.090;2023-04-01T00:50:38;44.43;;;42.93;;
13605;SDS011;6874;52.084;5.090;2023-04-01T00:53:08;45.27;;;43.77;;
13605;SDS011;6874;52.084;5.090;2023-04-01T00:55:36;46.37;;;44.83;;
13605;SDS011;6874;52.084;5.090;2023-04-01T00:58:05;41.80;;;40.40;;
13605;SDS011;6874;52.084;5.090;2023-04-01T01:00:34;44.97;;;43.47;;
13605;SDS011;6874;52.084;5.090;2023-04-01T01:03:01;45.10;;;43.60;;
13605;SDS011;6874;52.084;5.090;2023-04-01T01:05:38;47.90;;;46.30;;
13605;SDS011;6874;52.084;5.090;2023-04-01T01:11:52;26.47;;;25.60;;
13605;SDS011;6874;52.084;5.090;2023-04-01T01:17:06;34.13;;;33.03;;
13605;SDS011;6874;52.084;5.090;2023-04-01T01:20:38;26.67;;;25.77;;
13605;SDS011;6874;52.084;5.090;2023-04-01T01:27:44;31.47;;;30.43;;
13605;SDS011;6874;52.084;5.090;2023-04-01T01:30:35;26.17;;;25.33;;
13605;SDS011;6874;52.084;5.090;2023-04-01T01:36:09;22.60;;;21.90;;
13605;SDS011;6874;52.084;5.090;2023-04-01T01:38:37;27.07;;;26.17;;
13605;SDS011;6874;52.084;5.090;2023-04-01T01:41:04;28.43;;;27.50;;
13605;SDS011;6874;52.084;5.090;2023-04-01T01:43:36;30.77;;;29.73;;
13605;SDS011;6874;52.084;5.090;2023-04-01T01:46:07;30.27;;;29.27;;
13605;SDS011;6874;52.084;5.090;2023-04-01T01:48:36;29.77;;;28.77;;
13605;SDS011;6874;52.084;5.090;2023-04-01T01:51:05;35.43;;;34.27;;
13605;SDS011;6874;52.084;5.090;2023-04-01T01:53:31;34.70;;;33.57;;
13605;SDS011;6874;52.084;5.090;2023-04-01T01:55:56;35.57;;;34.37;;
13605;SDS011;6874;52.084;5.090;2023-04-01T01:58:23;38.53;;;37.27;;
13605;SDS011;6874;52.084;5.090;2023-04-01T02:00:51;34.03;;;32.93;;
13605;SDS011;6874;52.084;5.090;2023-04-01T02:03:21;35.17;;;34.03;;
13605;SDS011;6874;52.084;5.090;2023-04-01T02:05:50;35.67;;;34.47;;
13605;SDS011;6874;52.084;5.090;2023-04-01T02:08:23;35.60;;;34.43;;
13605;SDS011;6874;52.084;5.090;2023-04-01T02:11:07;30.63;;;29.63;;
13605;SDS011;6874;52.084;5.090;2023-04-01T02:13:39;32.57;;;31.50;;
13605;SDS011;6874;52.084;5.090;2023-04-01T02:16:12;31.27;;;30.23;;
13605;SDS011;6874;52.084;5.090;2023-04-01T02:18:43;30.37;;;29.40;;
13605;SDS011;6874;52.084;5.090;2023-04-01T02:21:12;32.10;;;31.03;;
13605;SDS011;6874;52.084;5.090;2023-04-01T02:23:39;31.27;;;30.27;;
13605;SDS011;6874;52.084;5.090;2023-04-01T02:26:06;35.83;;;34.63;;
13605;SDS011;6874;52.084;5.090;2023-04-01T02:28:35;34.00;;;32.87;;
13605;SDS011;6874;52.084;5.090;2023-04-01T02:31:03;33.37;;;32.27;;
13605;SDS011;6874;52.084;5.090;2023-04-01T02:33:29;36.00;;;34.80;;
13605;SDS011;6874;52.084;5.090;2023-04-01T02:35:57;35.10;;;33.93;;
13605;SDS011;6874;52.084;5.090;2023-04-01T02:38:23;36.87;;;35.63;;
13605;SDS011;6874;52.084;5.090;2023-04-01T02:40:50;33.77;;;32.63;;
13605;SDS011;6874;52.084;5.090;2023-04-01T02:43:20;33.60;;;32.50;;
13605;SDS011;6874;52.084;5.090;2023-04-01T02:45:46;34.80;;;33.67;;
13605;SDS011;6874;52.084;5.090;2023-04-01T02:48:12;34.43;;;33.30;;
13605;SDS011;6874;52.084;5.090;2023-04-01T02:50:38;34.87;;;33.70;;
13605;SDS011;6874;52.084;5.090;2023-04-01T02:53:04;32.60;;;31.53;;
13605;SDS011;6874;52.084;5.090;2023-04-01T02:55:31;33.70;;;32.60;;
13605;SDS011;6874;52.084;5.090;2023-04-01T02:57:57;31.57;;;30.53;;
13605;SDS011;6874;52.084;5.090;2023-04-01T03:00:23;34.67;;;33.50;;
13605;SDS011;6874;52.084;5.090;2023-04-01T03:02:49;33.57;;;32.47;;
13605;SDS011;6874;52.084;5.090;2023-04-01T03:05:15;36.17;;;34.97;;
13605;SDS011;6874;52.084;5.090;2023-04-01T03:07:40;32.63;;;31.57;;
13605;SDS011;6874;52.084;5.090;2023-04-01T03:10:06;32.77;;;31.67;;
13605;SDS011;6874;52.084;5.090;2023-04-01T03:12:32;34.07;;;32.93;;
13605;SDS011;6874;52.084;5.090;2023-04-01T03:14:58;32.07;;;31.00;;
13605;SDS011;6874;52.084;5.090;2023-04-01T03:17:23;31.20;;;30.17;;
13605;SDS011;6874;52.084;5.090;2023-04-01T03:19:49;31.77;;;30.73;;
13605;SDS011;6874;52.084;5.090;2023-04-01T03:22:15;29.57;;;28.60;;
13605;SDS011;6874;52.084;5.090;2023-04-01T03:24:40;28.93;;;28.00;;
13605;SDS011;6874;52.084;5.090;2023-04-01T03:27:06;27.53;;;26.67;;
13605;SDS011;6874;52.084;5.090;2023-04-01T03:29:31;30.07;;;29.07;;
13605;SDS011;6874;52.084;5.090;2023-04-01T03:31:57;25.70;;;24.87;;
13605;SDS011;6874;52.084;5.090;2023-04-01T03:34:24;25.23;;;24.40;;
13605;SDS011;6874;52.084;5.090;2023-04-01T03:36:50;26.13;;;25.30;;
13605;SDS011;6874;52.084;5.090;2023-04-01T03:39:16;24.80;;;24.03;;
13605;SDS011;6874;52.084;5.090;2023-04-01T03:41:43;20.63;;;20.00;;
13605;SDS011;6874;52.084;5.090;2023-04-01T03:44:10;19.33;;;18.73;;
13605;SDS011;6874;52.084;5.090;2023-04-01T03:46:36;18.17;;;17.60;;
13605;SDS011;6874;52.084;5.090;2023-04-01T03:49:02;17.73;;;17.20;;
13605;SDS011;6874;52.084;5.090;2023-04-01T03:51:27;17.87;;;17.30;;
13605;SDS011;6874;52.084;5.090;2023-04-01T03:53:53;15.20;;;14.73;;
13605;SDS011;6874;52.084;5.090;2023-04-01T03:56:19;15.23;;;14.77;;
13605;SDS011;6874;52.084;5.090;2023-04-01T03:58:44;13.87;;;13.43;;
13605;SDS011;6874;52.084;5.090;2023-04-01T04:01:17;15.07;;;14.60;;
13605;SDS011;6874;52.084;5.090;2023-04-01T04:03:45;16.20;;;15.70;;
13605;SDS011;6874;52.084;5.090;2023-04-01T04:06:12;17.20;;;16.70;;
13605;SDS011;6874;52.084;5.090;2023-04-01T04:08:38;18.67;;;18.07;;
13605;SDS011;6874;52.084;5.090;2023-04-01T04:11:04;20.47;;;19.80;;
13605;SDS011;6874;52.084;5.090;2023-04-01T04:13:30;22.10;;;21.40;;
13605;SDS011;6874;52.084;5.090;2023-04-01T04:15:55;24.20;;;23.40;;
13605;SDS011;6874;52.084;5.090;2023-04-01T04:18:21;27.77;;;26.87;;
13605;SDS011;6874;52.084;5.090;2023-04-01T04:20:49;25.13;;;24.33;;
13605;SDS011;6874;52.084;5.090;2023-04-01T04:23:16;29.67;;;28.67;;
13605;SDS011;6874;52.084;5.090;2023-04-01T04:28:20;30.00;;;29.00;;
13605;SDS011;6874;52.084;5.090;2023-04-01T04:30:46;34.27;;;33.10;;
13605;SDS011;6874;52.084;5.090;2023-04-01T04:33:11;33.27;;;32.17;;
13605;SDS011;6874;52.084;5.090;2023-04-01T04:35:37;34.73;;;33.57;;
13605;SDS011;6874;52.084;5.090;2023-04-01T04:38:02;36.20;;;35.00;;
13605;SDS011;6874;52.084;5.090;2023-04-01T04:40:28;36.80;;;35.53;;
13605;SDS011;6874;52.084;5.090;2023-04-01T04:42:54;36.53;;;35.27;;
13605;SDS011;6874;52.084;5.090;2023-04-01T04:45:19;39.87;;;38.47;;
13605;SDS011;6874;52.084;5.090;2023-04-01T04:47:45;39.80;;;38.40;;
13605;SDS011;6874;52.084;5.090;2023-04-01T04:50:10;39.57;;;38.23;;
13605;SDS011;6874;52.084;5.090;2023-04-01T04:52:36;38.27;;;36.97;;
13605;SDS011;6874;52.084;5.090;2023-04-01T04:55:02;36.93;;;35.63;;
13605;SDS011;6874;52.084;5.090;2023-04-01T04:57:28;37.60;;;36.33;;
13605;SDS011;6874;52.084;5.090;2023-04-01T04:59:53;37.53;;;36.23;;
13605;SDS011;6874;52.084;5.090;2023-04-01T05:02:19;41.73;;;40.33;;
13605;SDS011;6874;52.084;5.090;2023-04-01T05:04:44;39.27;;;37.90;;
13605;SDS011;6874;52.084;5.090;2023-04-01T05:07:10;39.53;;;38.20;;
13605;SDS011;6874;52.084;5.090;2023-04-01T05:09:35;39.00;;;37.67;;
13605;SDS011;6874;52.084;5.090;2023-04-01T05:12:01;40.70;;;39.30;;
13605;SDS011;6874;52.084;5.090;2023-04-01T05:14:27;40.73;;;39.33;;
13605;SDS011;6874;52.084;5.090;2023-04-01T05:16:52;40.80;;;39.40;;
13605;SDS011;6874;52.084;5.090;2023-04-01T05:19:19;40.63;;;39.23;;
13605;SDS011;6874;52.084;5.090;2023-04-01T05:21:45;40.33;;;38.93;;
13605;SDS011;6874;52.084;5.090;2023-04-01T05:24:10;43.37;;;41.87;;
13605;SDS011;6874;52.084;5.090;2023-04-01T05:26:36;39.67;;;38.30;;
13605;SDS011;6874;52.084;5.090;2023-04-01T05:29:02;40.93;;;39.53;;
13605;SDS011;6874;52.084;5.090;2023-04-01T05:31:29;37.47;;;36.17;;
13605;SDS011;6874;52.084;5.090;2023-04-01T05:33:54;41.13;;;39.70;;
13605;SDS011;6874;52.084;5.090;2023-04-01T05:36:20;38.77;;;37.47;;
13605;SDS011;6874;52.084;5.090;2023-04-01T05:38:46;40.90;;;39.47;;
13605;SDS011;6874;52.084;5.090;2023-04-01T05:41:12;44.10;;;42.60;;
13605;SDS011;6874;52.084;5.090;2023-04-01T05:43:39;42.20;;;40.77;;
13605;SDS011;6874;52.084;5.090;2023-04-01T05:46:05;41.60;;;40.20;;
13605;SDS011;6874;52.084;5.090;2023-04-01T05:48:32;46.47;;;44.87;;
13605;SDS011;6874;52.084;5.090;2023-04-01T05:50:58;43.40;;;41.90;;
13605;SDS011;6874;52.084;5.090;2023-04-01T05:53:24;44.37;;;42.87;;
13605;SDS011;6874;52.084;5.090;2023-04-01T05:55:50;43.33;;;41.83;;
13605;SDS011;6874;52.084;5.090;2023-04-01T05:58:15;45.97;;;44.37;;
13605;SDS011;6874;52.084;5.090;2023-04-01T06:00:41;42.43;;;40.93;;
13605;SDS011;6874;52.084;5.090;2023-04-01T06:03:06;47.27;;;45.67;;
13605;SDS011;6874;52.084;5.090;2023-04-01T06:05:42;45.30;;;43.73;;
13605;SDS011;6874;52.084;5.090;2023-04-01T06:08:10;32.80;;;31.70;;
13605;SDS011;6874;52.084;5.090;2023-04-01T06:10:48;34.60;;;33.43;;
13605;SDS011;6874;52.084;5.090;2023-04-01T06:13:43;28.67;;;27.73;;
13605;SDS011;6874;52.084;5.090;2023-04-01T06:22:08;25.10;;;24.27;;
13605;SDS011;6874;52.084;5.090;2023-04-01T06:25:14;25.00;;;24.17;;
13605;SDS011;6874;52.084;5.090;2023-04-01T06:30:40;26.07;;;25.20;;
13605;SDS011;6874;52.084;5.090;2023-04-01T06:35:43;28.67;;;27.73;;
13605;SDS011;6874;52.084;5.090;2023-04-01T06:38:25;26.80;;;25.93;;
13605;SDS011;6874;52.084;5.090;2023-04-01T06:46:56;26.57;;;25.70;;
13605;SDS011;6874;52.084;5.090;2023-04-01T06:54:47;24.80;;;24.00;;
13605;SDS011;6874;52.084;5.090;2023-04-01T06:57:34;24.93;;;24.10;;
13605;SDS011;6874;52.084;5.090;2023-04-01T07:00:11;23.57;;;22.80;;
13605;SDS011;6874;52.084;5.090;2023-04-01T07:05:42;23.87;;;23.13;;
13605;SDS011;6874;52.084;5.090;2023-04-01T07:08:16;26.00;;;25.13;;
13605;SDS011;6874;52.084;5.090;2023-04-01T07:16:25;31.30;;;30.30;;
13605;SDS011;6874;52.084;5.090;2023-04-01T07:22:04;33.73;;;32.63;;
13605;SDS011;6874;52.084;5.090;2023-04-01T07:24:49;40.47;;;39.13;;
13605;SDS011;6874;52.084;5.090;2023-04-01T07:27:16;34.87;;;33.77;;
13605;SDS011;6874;52.084;5.090;2023-04-01T07:29:42;38.13;;;36.87;;
13605;SDS011;6874;52.084;5.090;2023-04-01T07:32:13;38.30;;;37.00;;
13605;SDS011;6874;52.084;5.090;2023-04-01T07:40:28;47.50;;;45.93;;
13605;SDS011;6874;52.084;5.090;2023-04-01T07:51:22;58.50;;;56.53;;
13605;SDS011;6874;52.084;5.090;2023-04-01T08:02:33;59.53;;;57.53;;
13605;SDS011;6874;52.084;5.090;2023-04-01T08:05:25;61.93;;;59.83;;
13605;SDS011;6874;52.084;5.090;2023-04-01T08:10:32;59.60;;;57.60;;
13605;SDS011;6874;52.084;5.090;2023-04-01T08:16:13;61.07;;;59.03;;
13605;SDS011;6874;52.084;5.090;2023-04-01T08:21:54;58.60;;;56.60;;
13605;SDS011;6874;52.084;5.090;2023-04-01T08:24:36;66.53;;;64.30;;
13605;SDS011;6874;52.084;5.090;2023-04-01T08:27:27;65.87;;;63.63;;
13605;SDS011;6874;52.084;5.090;2023-04-01T08:32:39;71.77;;;69.33;;
13605;SDS011;6874;52.084;5.090;2023-04-01T08:35:24;72.87;;;70.40;;
13605;SDS011;6874;52.084;5.090;2023-04-01T08:37:54;74.43;;;71.90;;
13605;SDS011;6874;52.084;5.090;2023-04-01T08:43:36;79.30;;;76.60;;
13605;SDS011;6874;52.084;5.090;2023-04-01T08:49:03;76.30;;;73.70;;
13605;SDS011;6874;52.084;5.090;2023-04-01T08:54:46;82.17;;;79.37;;
13605;SDS011;6874;52.084;5.090;2023-04-01T08:57:42;82.83;;;80.03;;
13605;SDS011;6874;52.084;5.090;2023-04-01T09:05:26;96.93;;;93.57;;
13605;SDS011;6874;52.084;5.090;2023-04-01T09:10:55;95.30;;;92.00;;
13605;SDS011;6874;52.084;5.090;2023-04-01T09:27:14;224.33;;;216.20;;
13605;SDS011;6874;52.084;5.090;2023-04-01T09:35:46;282.07;;;271.27;;
13605;SDS011;6874;52.084;5.090;2023-04-01T09:44:26;284.83;;;273.97;;
13605;SDS011;6874;52.084;5.090;2023-04-01T09:47:14;281.40;;;270.67;;
13605;SDS011;6874;52.084;5.090;2023-04-01T09:49:52;272.40;;;261.93;;
13605;SDS011;6874;52.084;5.090;2023-04-01T09:52:25;293.37;;;281.93;;
13605;SDS011;6874;52.084;5.090;2023-04-01T09:55:05;282.93;;;272.07;;
13605;SDS011;6874;52.084;5.090;2023-04-01T09:57:48;285.33;;;274.40;;
13605;SDS011;6874;52.084;5.090;2023-04-01T10:00:48;277.60;;;266.80;;
13605;SDS011;6874;52.084;5.090;2023-04-01T10:12:19;309.60;;;297.57;;
13605;SDS011;6874;52.084;5.090;2023-04-01T10:26:37;315.43;;;302.83;;
13605;SDS011;6874;52.084;5.090;2023-04-01T10:29:39;306.83;;;294.70;;
13605;SDS011;6874;52.084;5.090;2023-04-01T10:32:31;304.90;;;292.60;;
13605;SDS011;6874;52.084;5.090;2023-04-01T10:43:45;278.90;;;267.33;;
13605;SDS011;6874;52.084;5.090;2023-04-01T11:00:46;326.50;;;312.93;;
13605;SDS011;6874;52.084;5.090;2023-04-01T11:30:28;338.67;;;323.97;;
13605;SDS011;6874;52.084;5.090;2023-04-01T11:33:18;325.30;;;311.27;;
13605;SDS011;6874;52.084;5.090;2023-04-01T11:41:41;247.97;;;237.47;;
13605;SDS011;6874;52.084;5.090;2023-04-01T11:50:15;336.50;;;322.37;;
13605;SDS011;6874;52.084;5.090;2023-04-01T11:52:42;355.00;;;339.70;;
13605;SDS011;6874;52.084;5.090;2023-04-01T11:55:43;363.53;;;347.43;;
13605;SDS011;6874;52.084;5.090;2023-04-01T12:01:07;360.20;;;344.13;;
13605;SDS011;6874;52.084;5.090;2023-04-01T12:03:54;379.70;;;362.80;;
13605;SDS011;6874;52.084;5.090;2023-04-01T12:06:57;354.33;;;338.57;;
13605;SDS011;6874;52.084;5.090;2023-04-01T12:10:02;346.03;;;330.73;;
13605;SDS011;6874;52.084;5.090;2023-04-01T12:15:45;338.70;;;323.67;;
13605;SDS011;6874;52.084;5.090;2023-04-01T12:18:35;327.90;;;313.50;;
13605;SDS011;6874;52.084;5.090;2023-04-01T12:23:58;314.43;;;300.70;;
13605;SDS011;6874;52.084;5.090;2023-04-01T12:26:43;310.50;;;297.13;;
13605;SDS011;6874;52.084;5.090;2023-04-01T12:29:31;315.97;;;302.40;;
13605;SDS011;6874;52.084;5.090;2023-04-01T12:35:26;324.97;;;310.87;;
13605;SDS011;6874;52.084;5.090;2023-04-01T12:48:57;331.30;;;316.87;;
13605;SDS011;6874;52.084;5.090;2023-04-01T12:54:28;330.53;;;316.10;;
13605;SDS011;6874;52.084;5.090;2023-04-01T13:08:43;367.20;;;350.67;;
13605;SDS011;6874;52.084;5.090;2023-04-01T13:17:34;366.17;;;349.67;;
13605;SDS011;6874;52.084;5.090;2023-04-01T13:30:44;400.40;;;382.10;;
13605;SDS011;6874;52.084;5.090;2023-04-01T13:33:16;414.63;;;395.57;;
13605;SDS011;6874;52.084;5.090;2023-04-01T13:38:28;415.73;;;396.80;;
13605;SDS011;6874;52.084;5.090;2023-04-01T13:43:47;340.10;;;325.30;;
13605;SDS011;6874;52.084;5.090;2023-04-01T13:46:24;344.63;;;329.70;;
13605;SDS011;6874;52.084;5.090;2023-04-01T14:00:25;375.17;;;358.20;;
13605;SDS011;6874;52.084;5.090;2023-04-01T14:11:35;371.40;;;354.67;;
13605;SDS011;6874;52.084;5.090;2023-04-01T14:14:36;345.70;;;330.60;;
13605;SDS011;6874;52.084;5.090;2023-04-01T14:17:19;343.77;;;328.67;;
13605;SDS011;6874;52.084;5.090;2023-04-01T14:33:58;275.63;;;264.93;;
13605;SDS011;6874;52.084;5.090;2023-04-01T14:39:38;254.07;;;244.40;;
13605;SDS011;6874;52.084;5.090;2023-04-01T14:47:53;279.20;;;268.37;;
13605;SDS011;6874;52.084;5.090;2023-04-01T14:50:41;309.67;;;297.07;;
13605;SDS011;6874;52.084;5.090;2023-04-01T14:53:11;321.17;;;308.10;;
13605;SDS011;6874;52.084;5.090;2023-04-01T15:03:36;341.30;;;326.90;;
13605;SDS011;6874;52.084;5.090;2023-04-01T15:14:46;340.17;;;325.63;;
13605;SDS011;6874;52.084;5.090;2023-04-01T15:17:22;346.63;;;331.57;;
13605;SDS011;6874;52.084;5.090;2023-04-01T15:31:12;365.33;;;349.63;;
13605;SDS011;6874;52.084;5.090;2023-04-01T15:36:57;354.07;;;338.83;;
13605;SDS011;6874;52.084;5.090;2023-04-01T15:39:43;346.80;;;331.97;;
13605;SDS011;6874;52.084;5.090;2023-04-01T15:42:26;350.73;;;335.53;;
13605;SDS011;6874;52.084;5.090;2023-04-01T15:51:01;347.40;;;332.37;;
13605;SDS011;6874;52.084;5.090;2023-04-01T15:59:01;343.87;;;329.33;;
13605;SDS011;6874;52.084;5.090;2023-04-01T16:16:17;342.13;;;327.37;;
13605;SDS011;6874;52.084;5.090;2023-04-01T16:24:24;351.40;;;336.43;;
13605;SDS011;6874;52.084;5.090;2023-04-01T16:27:16;333.37;;;319.03;;
13605;SDS011;6874;52.084;5.090;2023-04-01T16:32:33;337.93;;;323.77;;
13605;SDS011;6874;52.084;5.090;2023-04-01T16:35:10;339.47;;;325.07;;
13605;SDS011;6874;52.084;5.090;2023-04-01T16:37:46;333.83;;;319.63;;
13605;SDS011;6874;52.084;5.090;2023-04-01T16:51:26;346.10;;;331.37;;
13605;SDS011;6874;52.084;5.090;2023-04-01T16:56:42;329.53;;;315.67;;
13605;SDS011;6874;52.084;5.090;2023-04-01T16:59:22;340.10;;;325.90;;
13605;SDS011;6874;52.084;5.090;2023-04-01T17:02:37;338.47;;;324.27;;
13605;SDS011;6874;52.084;5.090;2023-04-01T17:04:48;327.43;;;313.77;;
13605;SDS011;6874;52.084;5.090;2023-04-01T17:24:01;322.33;;;309.13;;
13605;SDS011;6874;52.084;5.090;2023-04-01T17:29:56;305.60;;;293.23;;
13605;SDS011;6874;52.084;5.090;2023-04-01T17:32:48;306.67;;;294.37;;
13605;SDS011;6874;52.084;5.090;2023-04-01T17:35:32;298.63;;;286.53;;
13605;SDS011;6874;52.084;5.090;2023-04-01T17:38:22;297.47;;;285.50;;
13605;SDS011;6874;52.084;5.090;2023-04-01T17:41:02;295.40;;;283.70;;
13605;SDS011;6874;52.084;5.090;2023-04-01T17:57:24;246.77;;;237.70;;
13605;SDS011;6874;52.084;5.090;2023-04-01T18:11:50;229.03;;;220.60;;
13605;SDS011;6874;52.084;5.090;2023-04-01T18:22:47;227.33;;;218.97;;
13605;SDS011;6874;52.084;5.090;2023-04-01T18:25:40;225.30;;;216.90;;
13605;SDS011;6874;52.084;5.090;2023-04-01T18:33:41;219.40;;;211.43;;
13605;SDS011;6874;52.084;5.090;2023-04-01T18:38:45;227.70;;;219.40;;
13605;SDS011;6874;52.084;5.090;2023-04-01T18:56:03;220.17;;;212.03;;
13605;SDS011;6874;52.084;5.090;2023-04-01T18:58:48;232.57;;;223.93;;
13605;SDS011;6874;52.084;5.090;2023-04-01T19:01:28;223.73;;;215.53;;
13605;SDS011;6874;52.084;5.090;2023-04-01T19:06:53;223.90;;;215.73;;
13605;SDS011;6874;52.084;5.090;2023-04-01T19:12:08;216.30;;;208.50;;
13605;SDS011;6874;52.084;5.090;2023-04-01T19:17:38;218.43;;;210.43;;
13605;SDS011;6874;52.084;5.090;2023-04-01T19:28:20;194.10;;;187.07;;
13605;SDS011;6874;52.084;5.090;2023-04-01T19:30:58;205.73;;;198.37;;
13605;SDS011;6874;52.084;5.090;2023-04-01T19:36:35;202.20;;;194.90;;
13605;SDS011;6874;52.084;5.090;2023-04-01T19:39:27;194.90;;;188.03;;
13605;SDS011;6874;52.084;5.090;2023-04-01T19:44:52;206.03;;;198.63;;
13605;SDS011;6874;52.084;5.090;2023-04-01T19:50:42;198.90;;;191.80;;
13605;SDS011;6874;52.084;5.090;2023-04-01T19:53:20;189.20;;;182.50;;
13605;SDS011;6874;52.084;5.090;2023-04-01T19:56:19;193.77;;;186.83;;
13605;SDS011;6874;52.084;5.090;2023-04-01T19:59:06;186.40;;;179.80;;
13605;SDS011;6874;52.084;5.090;2023-04-01T20:04:42;172.83;;;166.73;;
13605;SDS011;6874;52.084;5.090;2023-04-01T20:10:04;149.60;;;144.33;;
13605;SDS011;6874;52.084;5.090;2023-04-01T20:18:03;138.00;;;133.13;;
13605;SDS011;6874;52.084;5.090;2023-04-01T20:20:38;141.00;;;136.00;;
13605;SDS011;6874;52.084;5.090;2023-04-01T20:23:23;123.20;;;118.83;;
13605;SDS011;6874;52.084;5.090;2023-04-01T20:26:13;115.33;;;111.33;;
13605;SDS011;6874;52.084;5.090;2023-04-01T20:31:43;106.60;;;102.90;;
13605;SDS011;6874;52.084;5.090;2023-04-01T20:37:14;100.37;;;96.90;;
13605;SDS011;6874;52.084;5.090;2023-04-01T20:48:11;100.67;;;97.13;;
13605;SDS011;6874;52.084;5.090;2023-04-01T20:51:03;104.23;;;100.63;;
13605;SDS011;6874;52.084;5.090;2023-04-01T20:53:50;103.40;;;99.80;;
13605;SDS011;6874;52.084;5.090;2023-04-01T20:59:24;100.23;;;96.80;;
13605;SDS011;6874;52.084;5.090;2023-04-01T21:07:44;98.27;;;94.93;;
13605;SDS011;6874;52.084;5.090;2023-04-01T21:13:01;94.93;;;91.73;;
13605;SDS011;6874;52.084;5.090;2023-04-01T21:18:33;95.13;;;91.97;;
13605;SDS011;6874;52.084;5.090;2023-04-01T21:32:46;77.80;;;75.20;;
13605;SDS011;6874;52.084;5.090;2023-04-01T21:38:18;79.07;;;76.37;;
13605;SDS011;6874;52.084;5.090;2023-04-01T21:40:56;75.60;;;73.07;;
13605;SDS011;6874;52.084;5.090;2023-04-01T21:43:32;70.93;;;68.53;;
13605;SDS011;6874;52.084;5.090;2023-04-01T21:46:26;73.07;;;70.57;;
13605;SDS011;6874;52.084;5.090;2023-04-01T22:00:30;61.00;;;58.97;;
13605;SDS011;6874;52.084;5.090;2023-04-01T22:11:26;53.83;;;52.03;;
13605;SDS011;6874;52.084;5.090;2023-04-01T22:17:06;51.80;;;50.07;;
13605;SDS011;6874;52.084;5.090;2023-04-01T22:25:32;46.27;;;44.77;;
13605;SDS011;6874;52.084;5.090;2023-04-01T22:30:55;41.87;;;40.47;;
13605;SDS011;6874;52.084;5.090;2023-04-01T22:39:02;39.07;;;37.77;;
13605;SDS011;6874;52.084;5.090;2023-04-01T22:41:45;41.30;;;39.90;;
13605;SDS011;6874;52.084;5.090;2023-04-01T22:44:42;44.73;;;43.23;;
13605;SDS011;6874;52.084;5.090;2023-04-01T22:47:40;41.67;;;40.27;;
13605;SDS011;6874;52.084;5.090;2023-04-01T22:53:06;42.10;;;40.70;;
13605;SDS011;6874;52.084;5.090;2023-04-01T22:55:52;45.10;;;43.60;;
13605;SDS011;6874;52.084;5.090;2023-04-01T22:58:30;42.50;;;41.10;;
13605;SDS011;6874;52.084;5.090;2023-04-01T23:01:15;43.27;;;41.77;;
13605;SDS011;6874;52.084;5.090;2023-04-01T23:03:49;40.57;;;39.20;;
13605;SDS011;6874;52.084;5.090;2023-04-01T23:06:18;37.70;;;36.43;;
13605;SDS011;6874;52.084;5.090;2023-04-01T23:09:37;37.90;;;36.60;;
13605;SDS011;6874;52.084;5.090;2023-04-01T23:12:02;33.87;;;32.77;;
13605;SDS011;6874;52.084;5.090;2023-04-01T23:20:00;33.67;;;32.57;;
13605;SDS011;6874;52.084;5.090;2023-04-01T23:23:05;35.40;;;34.20;;
13605;SDS011;6874;52.084;5.090;2023-04-01T23:25:50;36.80;;;35.60;;
13605;SDS011;6874;52.084;5.090;2023-04-01T23:28:27;32.20;;;31.10;;
13605;SDS011;6874;52.084;5.090;2023-04-01T23:31:26;32.57;;;31.47;;
13605;SDS011;6874;52.084;5.090;2023-04-01T23:33:53;30.83;;;29.83;;
13605;SDS011;6874;52.084;5.090;2023-04-01T23:36:44;27.73;;;26.83;;
13605;SDS011;6874;52.084;5.090;2023-04-01T23:42:22;32.13;;;31.07;;
13605;SDS011;6874;52.084;5.090;2023-04-01T23:44:50;29.63;;;28.63;;
13605;SDS011;6874;52.084;5.090;2023-04-01T23:47:40;30.60;;;29.60;;
13605;SDS011;6874;52.084;5.090;2023-04-01T23:50:12;28.53;;;27.63;;
13605;SDS011;6874;52.084;5.090;2023-04-01T23:52:42;27.10;;;26.23;;
13605;SDS011;6874;52.084;5.090;2023-04-01T23:57:39;30.17;;;29.20;;
